← Previous July 20, 2024 3:08 PM Next →

FTUS41 KBGM 180829 AAA
TAFITH
TAF AMD
KITH 180829Z 1808/1906 00000KT 1/4SM FG OVC001
     FM181100 00000KT 2SM BR BKN006
      TEMPO 1811/1812 1SM BR
     FM181200 28007KT P6SM SCT200
     FM181600 31010G15KT P6SM FEW100
     FM190000 32004KT P6SM FEW220=